Jamison, PA (18929)

8:38 AM EST on December 06, 2016 (GMT -0500)
Woodfield Estates | | Change Station

Elev 318 ft 40.25 °N, 75.09 °W | Updated 23 days ago

Cloudy
Cloudy
41 °F
Feels Like 36 °F
N
8
Wind Variable Wind from ENE
Gusts mph

Today
High -- | Low -- °F
--% Chance of Precip.
Yesterday
High -- | Low -- °F
Precip. -- in
Pressure 30.14 in
Visibility 10.0 miles
Clouds Clear
Windchill 36 °F
Dew Point 32 °F
Humidity 69%
Rainfall in
Snow Depth Not available.
7:09 AM 4:34 PM
Waxing Crescent, 42% visible
METAR KDYL 061254Z AUTO 00000KT 10SM CLR 02/M02 A3012 RMK AO2 SLP205 T00171017
Pressure 30.14 in
Visibility 10.0 miles
Clouds Clear
Windchill 36 °F
Dew Point 32 °F
Humidity 69%
Rainfall in
Snow Depth Not available.
7:09 AM 4:34 PM
Waxing Crescent, 42% visible
METAR KDYL 061254Z AUTO 00000KT 10SM CLR 02/M02 A3012 RMK AO2 SLP205 T00171017

10-Day Weather Forecast

Almanac

Astronomy

Dec. 06, 2016 Rise Set
Actual Time
Civil Twilight
Nautical Twilight
Astronomical Twilight
Moon
Length of Visible Light
Length of Day
Tomorrow will be .
, % of the Moon is Illuminated

Today's Extremes

State Highs State Lows

Community

WunderPhotos

Upload Photos

1,955,945 photos uploaded!

WunderBlog® & News

Nearby

Air Quality

  Air Quality AQ Index Pollutant
Not available.

Snow Depth

Station Depth Elevation

Earthquake Activity

City Distance Mag. Time & Date
Minimum magnitude displayed is 2.5.

Coastal Water Temperatures

Place Temperature

Stations

Nearby Weather Stations

Station Location Temp. Windchill Dew Point Humidity Wind Precip. Elev Updated Type
                   

Watches & Warnings

There are currently no watches in effect.